createdAt,value
2023-03-27T00:03:05.592Z,11.17
2023-03-27T00:08:14.030Z,9.50
2023-03-27T00:13:16.570Z,10.03
2023-03-27T00:18:19.149Z,11.80
2023-03-27T00:23:22.648Z,10.27
2023-03-27T00:28:29.688Z,9.63
2023-03-27T00:33:32.346Z,11.38
2023-03-27T00:38:34.898Z,11.70
2023-03-27T00:43:43.969Z,15.65
2023-03-27T00:48:50.540Z,12.32
2023-03-27T00:53:54.192Z,11.27
2023-03-27T00:59:02.600Z,10.68
2023-03-27T01:04:06.969Z,12.57
2023-03-27T01:09:09.752Z,9.38
2023-03-27T01:14:50.687Z,17.95
2023-03-27T01:26:07.539Z,8.70
2023-03-27T01:31:16.303Z,9.50
2023-03-27T01:36:22.320Z,10.80
2023-03-27T01:41:36.240Z,8.10
2023-03-27T01:46:47.406Z,10.23
2023-03-27T01:51:56.731Z,13.23
2023-03-27T01:57:22.524Z,11.40
2023-03-27T02:02:32.919Z,13.07
2023-03-27T02:07:41.376Z,15.38
2023-03-27T02:12:49.703Z,12.93
2023-03-27T02:18:05.659Z,17.40
2023-03-27T02:23:08.970Z,19.67
2023-03-27T02:28:35.072Z,17.10
2023-03-27T02:33:59.919Z,16.00
2023-03-27T02:39:50.162Z,15.47
2023-03-27T02:45:07.590Z,19.40
2023-03-27T02:50:19.089Z,22.10
2023-03-27T02:55:38.922Z,19.85
2023-03-27T03:00:49.371Z,23.77
2023-03-27T03:06:08.068Z,21.73
2023-03-27T03:11:29.773Z,26.42
2023-03-27T03:16:32.781Z,24.73
2023-03-27T03:21:36.521Z,26.80
2023-03-27T03:26:40.557Z,23.48
2023-03-27T03:31:43.636Z,28.07
2023-03-27T03:36:50.163Z,30.98
2023-03-27T03:41:59.920Z,29.07
2023-03-27T03:47:02.538Z,32.45
2023-03-27T03:52:05.417Z,25.73
2023-03-27T03:57:09.416Z,30.70
2023-03-27T04:02:12.599Z,29.67
2023-03-27T04:07:17.913Z,32.17
2023-03-27T04:12:24.632Z,27.23
2023-03-27T04:17:35.913Z,29.42
2023-03-27T04:22:39.521Z,23.90
2023-03-27T04:27:45.322Z,34.55
2023-03-27T04:32:53.961Z,27.77
2023-03-27T04:38:09.858Z,31.30
2023-03-27T04:43:20.168Z,32.10
2023-03-27T04:48:23.104Z,27.90
2023-03-27T04:53:31.507Z,28.25
2023-03-27T04:58:37.522Z,33.17
2023-03-27T05:03:46.535Z,30.35
2023-03-27T05:08:57.011Z,29.17
2023-03-27T05:14:03.959Z,28.60
2023-03-27T05:19:09.827Z,20.48
2023-03-27T05:24:16.834Z,22.50
2023-03-27T05:29:21.037Z,21.52
2023-03-27T05:34:34.882Z,21.50
2023-03-27T05:39:41.694Z,20.17
2023-03-27T05:44:49.056Z,23.25
2023-03-27T05:49:58.710Z,22.47
2023-03-27T05:55:02.208Z,21.17
2023-03-27T06:00:12.041Z,21.42
2023-03-27T06:05:18.529Z,15.10
2023-03-27T06:10:27.809Z,15.25
2023-03-27T06:15:48.141Z,17.40
2023-03-27T06:21:05.043Z,17.23
2023-03-27T06:26:08.981Z,13.73
2023-03-27T06:31:12.289Z,15.00
2023-03-27T06:36:18.385Z,15.85
2023-03-27T06:41:24.077Z,17.40
2023-03-27T06:46:45.953Z,18.42
2023-03-27T06:51:52.993Z,18.20
2023-03-27T06:56:57.184Z,14.07
2023-03-27T07:02:02.037Z,16.48
2023-03-27T07:07:24.871Z,16.20
2023-03-27T07:12:27.685Z,15.23
2023-03-27T07:17:45.573Z,17.00
2023-03-27T07:22:51.804Z,13.13
2023-03-27T07:28:16.965Z,15.65
2023-03-27T07:33:20.285Z,19.23
2023-03-27T07:38:26.511Z,16.03
2023-03-27T07:43:46.341Z,13.77
2023-03-27T07:48:49.397Z,10.87
2023-03-27T07:53:56.151Z,17.30
2023-03-27T07:59:04.482Z,13.95
2023-03-27T08:04:07.380Z,12.77
2023-03-27T08:09:13.474Z,11.25
2023-03-27T08:14:16.079Z,12.98
2023-03-27T08:19:19.671Z,12.90
2023-03-27T08:24:26.913Z,12.60
2023-03-27T08:29:40.844Z,10.07
2023-03-27T08:34:43.533Z,10.40
2023-03-27T08:39:47.416Z,12.77
2023-03-27T08:44:55.243Z,10.27
2023-03-27T08:50:35.138Z,13.73
2023-03-27T08:55:53.373Z,8.45
2023-03-27T09:01:30.660Z,9.20
2023-03-27T09:07:12.572Z,20.23
2023-03-27T09:12:57.501Z,11.50
2023-03-27T09:18:08.203Z,10.93
2023-03-27T09:23:19.137Z,8.85
2023-03-27T09:29:06.928Z,9.20
2023-03-27T09:34:24.917Z,9.20
2023-03-27T09:39:35.599Z,9.77
2023-03-27T09:45:03.658Z,7.90
2023-03-27T09:50:27.940Z,7.50
2023-03-27T09:56:07.581Z,9.25
2023-03-27T10:01:20.166Z,8.93
2023-03-27T10:06:38.170Z,6.37
2023-03-27T10:11:52.473Z,9.95
2023-03-27T10:17:02.383Z,7.65
2023-03-27T10:22:26.374Z,7.80
2023-03-27T10:27:34.337Z,18.02
2023-03-27T10:33:09.505Z,12.93
2023-03-27T10:38:27.037Z,9.93
2023-03-27T10:43:54.025Z,8.57
2023-03-27T10:49:25.861Z,8.57
2023-03-27T10:54:56.773Z,7.23
2023-03-27T11:00:33.423Z,8.27
2023-03-27T11:05:46.051Z,7.65
2023-03-27T11:11:28.284Z,12.82
2023-03-27T11:16:40.310Z,10.20
2023-03-27T11:21:50.311Z,10.07
2023-03-27T11:27:28.978Z,10.93
2023-03-27T11:33:10.756Z,13.00
2023-03-27T11:38:30.893Z,10.00
2023-03-27T11:43:39.116Z,11.27
2023-03-27T11:48:52.952Z,12.57
2023-03-27T11:53:56.606Z,13.87
2023-03-27T11:59:37.735Z,11.32
2023-03-27T12:04:40.871Z,11.80
2023-03-27T12:10:13.573Z,13.00
2023-03-27T12:16:03.960Z,11.68
2023-03-27T12:21:24.464Z,11.65
2023-03-27T12:26:47.804Z,11.17
2023-03-27T12:32:26.460Z,13.35
2023-03-27T12:37:40.361Z,11.07
2023-03-27T12:42:52.160Z,10.97
2023-03-27T12:48:27.460Z,13.87
2023-03-27T12:53:31.364Z,13.57
2023-03-27T12:58:49.677Z,14.75
2023-03-27T13:05:10.707Z,14.60
2023-03-27T13:10:55.630Z,14.25
2023-03-27T13:16:25.927Z,12.23
2023-03-27T13:21:47.359Z,16.23
2023-03-27T13:27:03.075Z,17.10
2023-03-27T13:32:34.754Z,15.82
2023-03-27T13:38:00.920Z,19.07
2023-03-27T13:43:17.265Z,17.10
2023-03-27T13:48:50.729Z,14.85
2023-03-27T13:54:00.273Z,18.60
2023-03-27T13:59:32.512Z,16.83
2023-03-27T14:05:05.974Z,13.52
2023-03-27T14:10:48.373Z,15.98
2023-03-27T14:16:25.215Z,17.90
2023-03-27T14:22:11.920Z,17.15
2023-03-27T14:27:26.685Z,15.80
2023-03-27T14:32:33.191Z,17.87
2023-03-27T14:37:37.139Z,18.95
2023-03-27T14:42:49.928Z,17.50
2023-03-27T14:48:17.851Z,19.70
2023-03-27T14:53:31.524Z,18.58
2023-03-27T14:58:47.008Z,18.63
2023-03-27T15:03:54.206Z,17.83
2023-03-27T15:09:05.805Z,18.98
2023-03-27T15:14:30.005Z,13.63
2023-03-27T15:19:51.263Z,13.97
2023-03-27T15:25:04.449Z,11.07
2023-03-27T15:30:28.967Z,10.95
2023-03-27T15:35:40.665Z,10.23
2023-03-27T15:40:46.864Z,10.27
2023-03-27T15:46:07.934Z,8.23
2023-03-27T15:51:14.446Z,8.90
2023-03-27T15:56:41.783Z,8.68
2023-03-27T16:01:53.637Z,9.88
2023-03-27T16:07:49.803Z,6.47
2023-03-27T16:12:58.807Z,9.02
2023-03-27T16:18:30.917Z,6.27
2023-03-27T16:23:33.622Z,6.70
2023-03-27T16:28:37.068Z,6.50
2023-03-27T16:33:45.627Z,7.60
2023-03-27T16:38:48.556Z,8.63
2023-03-27T16:43:51.535Z,7.80
2023-03-27T16:48:54.915Z,9.47
2023-03-27T16:53:57.794Z,13.82
2023-03-27T16:59:00.442Z,10.90
2023-03-27T17:04:03.005Z,11.07
2023-03-27T17:09:07.103Z,12.70
2023-03-27T17:14:15.698Z,12.75
2023-03-27T17:19:19.066Z,13.10
2023-03-27T17:24:21.878Z,15.00
2023-03-27T17:29:24.732Z,14.83
2023-03-27T17:34:29.016Z,13.25
2023-03-27T17:39:31.978Z,10.02
2023-03-27T17:44:34.695Z,18.23
2023-03-27T17:49:37.407Z,21.17
2023-03-27T17:54:40.618Z,22.13
2023-03-27T17:59:43.210Z,21.08
2023-03-27T18:04:53.821Z,15.10
2023-03-27T18:09:56.570Z,14.60
2023-03-27T18:14:59.183Z,15.13
2023-03-27T18:20:02.193Z,14.60
2023-03-27T18:25:07.139Z,14.68
2023-03-27T18:30:13.521Z,13.07
2023-03-27T18:35:20.755Z,12.10
2023-03-27T18:40:23.916Z,11.32
2023-03-27T18:45:26.647Z,12.47
2023-03-27T18:50:29.179Z,11.40
2023-03-27T18:55:32.647Z,11.57
2023-03-27T19:00:35.251Z,11.20
2023-03-27T19:05:37.725Z,12.32
2023-03-27T19:10:40.534Z,11.63
2023-03-27T19:15:54.098Z,13.40
2023-03-27T19:21:15.595Z,12.23
2023-03-27T19:26:21.541Z,12.77
2023-03-27T19:31:25.279Z,11.35
2023-03-27T19:36:28.927Z,10.10
2023-03-27T19:41:31.657Z,11.20
2023-03-27T19:46:37.027Z,8.55
2023-03-27T19:51:40.044Z,7.60
2023-03-27T19:56:43.379Z,7.60
2023-03-27T20:01:46.063Z,9.97
2023-03-27T20:06:48.960Z,9.18
2023-03-27T20:11:51.633Z,6.82
2023-03-27T20:16:55.629Z,8.50
2023-03-27T20:21:59.574Z,7.88
2023-03-27T20:27:02.423Z,9.00
2023-03-27T20:32:07.546Z,10.43
2023-03-27T20:37:12.185Z,7.95
2023-03-27T20:42:54.740Z,9.00
2023-03-27T20:48:03.586Z,9.70
2023-03-27T20:53:06.074Z,8.93
2023-03-27T20:58:09.123Z,9.82
2023-03-27T21:03:13.373Z,9.05
2023-03-27T21:08:16.245Z,9.17
2023-03-27T21:13:18.756Z,8.65
2023-03-27T21:18:22.152Z,10.50
2023-03-27T21:23:24.711Z,8.63
2023-03-27T21:28:27.271Z,9.48
2023-03-27T21:33:31.193Z,10.27
2023-03-27T21:38:34.010Z,10.10
2023-03-27T21:43:54.930Z,8.90
2023-03-27T21:48:57.416Z,10.50
2023-03-27T21:54:00.013Z,9.48
2023-03-27T21:59:02.479Z,10.47
2023-03-27T22:04:05.123Z,9.23
2023-03-27T22:09:07.608Z,8.83
2023-03-27T22:14:10.315Z,8.68
2023-03-27T22:19:13.384Z,8.18
2023-03-27T22:24:16.225Z,12.47
2023-03-27T22:29:19.016Z,10.38
2023-03-27T22:34:21.650Z,9.97
2023-03-27T22:39:24.187Z,10.05
2023-03-27T22:44:26.874Z,10.15
2023-03-27T22:49:29.380Z,10.93
2023-03-27T22:54:32.408Z,12.45
2023-03-27T22:59:35.170Z,13.03
2023-03-27T23:04:37.726Z,13.48
2023-03-27T23:09:59.396Z,12.45
2023-03-27T23:15:01.869Z,14.15
2023-03-27T23:20:06.469Z,13.63
2023-03-27T23:25:09.946Z,15.33
2023-03-27T23:30:30.897Z,14.50
2023-03-27T23:35:33.495Z,15.00
2023-03-27T23:40:36.087Z,14.90
2023-03-27T23:45:38.676Z,16.10
2023-03-27T23:50:41.241Z,17.10
2023-03-27T23:55:43.824Z,16.63
